createdAt,value
2022-11-17T00:01:21.193Z,9.64
2022-11-17T00:03:49.172Z,9.65
2022-11-17T00:06:16.596Z,9.66
2022-11-17T00:08:43.198Z,9.67
2022-11-17T00:11:09.652Z,9.68
2022-11-17T00:13:54.781Z,9.68
2022-11-17T00:16:21.971Z,9.69
2022-11-17T00:19:07.465Z,9.68
2022-11-17T00:21:34.405Z,9.69
2022-11-17T00:24:01.119Z,9.70
2022-11-17T00:26:32.752Z,9.68
2022-11-17T00:29:05.627Z,9.70
2022-11-17T00:31:52.172Z,9.70
2022-11-17T00:34:23.177Z,9.71
2022-11-17T00:36:52.238Z,9.71
2022-11-17T00:39:20.628Z,9.71
2022-11-17T00:41:47.377Z,9.71
2022-11-17T00:44:14.237Z,9.71
2022-11-17T00:46:41.342Z,9.70
2022-11-17T00:49:09.220Z,9.72
2022-11-17T00:51:36.390Z,9.73
2022-11-17T00:54:04.407Z,9.71
2022-11-17T00:56:30.976Z,9.69
2022-11-17T00:58:57.543Z,9.69
2022-11-17T01:01:24.469Z,9.71
2022-11-17T01:03:51.100Z,9.72
2022-11-17T01:06:19.807Z,9.72
2022-11-17T01:08:46.536Z,9.72
2022-11-17T01:11:14.397Z,9.72
2022-11-17T01:13:41.917Z,9.72
2022-11-17T01:16:11.200Z,9.73
2022-11-17T01:18:38.458Z,9.73
2022-11-17T01:21:10.808Z,9.73
2022-11-17T01:23:38.950Z,9.72
2022-11-17T01:26:11.596Z,9.73
2022-11-17T01:28:39.165Z,9.69
2022-11-17T01:31:08.692Z,9.76
2022-11-17T01:33:35.431Z,9.77
2022-11-17T01:36:04.227Z,9.77
2022-11-17T01:38:31.447Z,9.78
2022-11-17T01:41:03.163Z,9.81
2022-11-17T01:44:18.984Z,9.84
2022-11-17T01:46:46.079Z,9.82
2022-11-17T01:49:20.039Z,9.83
2022-11-17T01:51:51.913Z,9.82
2022-11-17T01:54:20.717Z,9.89
2022-11-17T01:56:51.831Z,9.85
2022-11-17T01:59:23.407Z,9.88
2022-11-17T02:01:56.615Z,9.89
2022-11-17T02:04:34.656Z,9.90
2022-11-17T02:07:08.006Z,9.91
2022-11-17T02:09:37.252Z,9.90
2022-11-17T02:12:05.662Z,9.90
2022-11-17T02:14:32.247Z,9.92
2022-11-17T02:17:04.287Z,9.94
2022-11-17T02:19:39.218Z,9.93
2022-11-17T02:22:43.466Z,9.96
2022-11-17T02:25:40.331Z,9.94
2022-11-17T02:28:19.202Z,9.93
2022-11-17T02:30:52.267Z,9.95
2022-11-17T02:33:38.733Z,9.93
2022-11-17T02:36:35.425Z,9.97
2022-11-17T02:39:23.964Z,9.97
2022-11-17T02:41:56.715Z,9.97
2022-11-17T02:44:33.229Z,9.98
2022-11-17T02:47:08.518Z,9.93
2022-11-17T02:49:41.152Z,9.98
2022-11-17T02:52:09.261Z,9.98
2022-11-17T02:54:35.717Z,9.98
2022-11-17T02:57:02.207Z,9.95
2022-11-17T02:59:36.490Z,9.97
2022-11-17T03:02:21.322Z,9.99
2022-11-17T03:05:12.199Z,10.02
2022-11-17T03:07:57.161Z,10.02
2022-11-17T03:10:42.187Z,10.03
2022-11-17T03:13:25.954Z,10.01
2022-11-17T03:16:25.975Z,10.01
2022-11-17T03:19:18.358Z,10.00
2022-11-17T03:21:50.066Z,9.95
2022-11-17T03:24:21.483Z,9.92
2022-11-17T03:26:54.646Z,9.89
2022-11-17T03:29:24.018Z,9.88
2022-11-17T03:31:56.865Z,9.90
2022-11-17T03:34:25.651Z,9.89
2022-11-17T03:36:55.535Z,9.87
2022-11-17T03:39:24.821Z,9.84
2022-11-17T03:41:57.459Z,9.84
2022-11-17T03:44:26.856Z,9.83
2022-11-17T03:46:55.806Z,9.83
2022-11-17T03:49:44.402Z,9.86
2022-11-17T03:52:11.335Z,9.82
2022-11-17T03:54:38.991Z,9.81
2022-11-17T03:57:21.179Z,9.82
2022-11-17T03:59:59.278Z,9.82
2022-11-17T04:02:26.824Z,9.83
2022-11-17T04:05:05.668Z,9.81
2022-11-17T04:07:33.186Z,9.86
2022-11-17T04:09:59.791Z,9.85
2022-11-17T04:12:44.727Z,9.89
2022-11-17T04:15:30.548Z,9.88
2022-11-17T04:17:57.133Z,9.91
2022-11-17T04:20:23.806Z,9.90
2022-11-17T04:23:06.876Z,9.96
2022-11-17T04:26:15.055Z,10.01
2022-11-17T04:28:47.251Z,10.00
2022-11-17T04:31:19.935Z,9.99
2022-11-17T04:33:55.175Z,10.02
2022-11-17T04:36:24.328Z,10.02
2022-11-17T04:38:52.931Z,10.04
2022-11-17T04:41:39.377Z,10.02
2022-11-17T04:44:07.383Z,10.02
2022-11-17T04:46:36.758Z,10.00
2022-11-17T04:49:04.333Z,9.99
2022-11-17T04:51:31.925Z,10.00
2022-11-17T04:53:59.078Z,10.01
2022-11-17T04:56:26.125Z,10.01
2022-11-17T04:58:53.083Z,9.99
2022-11-17T05:01:20.807Z,9.99
2022-11-17T05:03:49.757Z,9.98
2022-11-17T05:06:21.658Z,9.97
2022-11-17T05:08:49.193Z,9.96
2022-11-17T05:11:35.430Z,9.95
2022-11-17T05:14:02.990Z,9.93
2022-11-17T05:16:48.077Z,9.96
2022-11-17T05:19:23.267Z,9.94
2022-11-17T05:21:49.797Z,9.95
2022-11-17T05:24:17.174Z,9.95
2022-11-17T05:26:45.239Z,9.92
2022-11-17T05:29:14.152Z,9.96
2022-11-17T05:31:40.904Z,9.96
2022-11-17T05:34:09.541Z,9.96
2022-11-17T05:36:36.102Z,9.99
2022-11-17T05:39:03.084Z,9.94
2022-11-17T05:41:29.639Z,9.99
2022-11-17T05:43:56.935Z,10.00
2022-11-17T05:46:23.896Z,10.02
2022-11-17T05:48:51.100Z,10.01
2022-11-17T05:51:20.046Z,10.02
2022-11-17T05:53:47.446Z,10.02
2022-11-17T05:56:21.650Z,10.01
2022-11-17T05:58:52.904Z,10.03
2022-11-17T06:01:21.377Z,9.98
2022-11-17T06:03:53.186Z,10.03
2022-11-17T06:06:20.082Z,10.08
2022-11-17T06:08:46.568Z,10.04
2022-11-17T06:11:13.696Z,9.98
2022-11-17T06:13:40.156Z,10.02
2022-11-17T06:16:09.739Z,10.03
2022-11-17T06:18:45.308Z,10.03
2022-11-17T06:21:15.857Z,10.03
2022-11-17T06:23:44.120Z,10.04
2022-11-17T06:26:11.503Z,10.05
2022-11-17T06:28:39.980Z,10.04
2022-11-17T06:31:07.838Z,10.04
2022-11-17T06:33:36.275Z,10.04
2022-11-17T06:36:05.646Z,10.04
2022-11-17T06:38:34.285Z,10.04
2022-11-17T06:41:00.806Z,9.99
2022-11-17T06:43:27.330Z,10.02
2022-11-17T06:45:53.873Z,9.99
2022-11-17T06:48:26.879Z,9.97
2022-11-17T06:50:55.060Z,9.93
2022-11-17T06:53:26.561Z,9.94
2022-11-17T06:56:01.340Z,9.95
2022-11-17T06:58:28.157Z,9.94
2022-11-17T07:00:55.191Z,9.92
2022-11-17T07:03:21.686Z,9.91
2022-11-17T07:05:48.261Z,9.91
2022-11-17T07:08:15.057Z,9.89
2022-11-17T07:10:45.050Z,9.89
2022-11-17T07:13:15.577Z,9.87
2022-11-17T07:15:42.125Z,9.84
2022-11-17T07:18:08.651Z,9.85
2022-11-17T07:20:35.153Z,9.82
2022-11-17T07:23:01.777Z,9.81
2022-11-17T07:25:28.330Z,9.79
2022-11-17T07:27:59.566Z,9.77
2022-11-17T07:30:26.587Z,9.78
2022-11-17T07:32:54.823Z,9.77
2022-11-17T07:35:21.637Z,9.74
2022-11-17T07:37:48.238Z,9.75
2022-11-17T07:40:15.975Z,9.74
2022-11-17T07:42:42.573Z,9.74
2022-11-17T07:45:09.740Z,9.73
2022-11-17T07:47:36.285Z,9.72
2022-11-17T07:50:04.255Z,9.73
2022-11-17T07:52:31.344Z,9.70
2022-11-17T07:54:57.920Z,9.70
2022-11-17T07:57:25.594Z,9.68
2022-11-17T07:59:52.214Z,9.68
2022-11-17T08:02:18.711Z,9.68
2022-11-17T08:04:45.386Z,9.68
2022-11-17T08:07:12.045Z,9.67
2022-11-17T08:09:38.626Z,9.66
2022-11-17T08:12:05.937Z,9.68
2022-11-17T08:14:32.485Z,9.68
2022-11-17T08:16:58.992Z,9.69
2022-11-17T08:19:25.543Z,9.70
2022-11-17T08:21:52.123Z,9.71
2022-11-17T08:24:18.702Z,9.71
2022-11-17T08:26:45.196Z,9.70
2022-11-17T08:29:11.697Z,9.70
2022-11-17T08:31:38.785Z,9.70
2022-11-17T08:34:05.335Z,9.65
2022-11-17T08:36:31.900Z,9.69
2022-11-17T08:38:58.408Z,9.67
2022-11-17T08:41:26.209Z,9.67
2022-11-17T08:43:52.718Z,9.67
2022-11-17T08:46:19.353Z,9.66
2022-11-17T08:48:45.864Z,9.66
2022-11-17T08:51:13.918Z,9.63
2022-11-17T08:53:41.033Z,9.64
2022-11-17T08:56:09.456Z,9.62
2022-11-17T08:58:40.593Z,9.61
2022-11-17T09:01:11.681Z,9.54
2022-11-17T09:03:38.394Z,9.61
2022-11-17T09:06:05.469Z,9.58
2022-11-17T09:08:56.251Z,9.60
2022-11-17T09:11:18.551Z,9.58
2022-11-17T09:13:46.665Z,9.58
2022-11-17T09:16:14.232Z,9.53
2022-11-17T09:18:41.547Z,9.58
2022-11-17T09:21:11.018Z,9.58
2022-11-17T09:23:38.095Z,9.58
2022-11-17T09:26:11.499Z,9.59
2022-11-17T09:28:38.652Z,9.58
2022-11-17T09:31:07.357Z,9.58
2022-11-17T09:33:34.158Z,9.60
2022-11-17T09:36:00.742Z,9.56
2022-11-17T09:38:27.324Z,9.60
2022-11-17T09:40:55.950Z,9.62
2022-11-17T09:43:30.085Z,9.63
2022-11-17T09:46:13.098Z,9.64
2022-11-17T09:48:46.108Z,9.65
2022-11-17T09:51:17.842Z,9.66
2022-11-17T09:53:57.076Z,9.69
2022-11-17T09:56:27.124Z,9.70
2022-11-17T09:58:58.765Z,9.72
2022-11-17T10:01:28.399Z,9.73
2022-11-17T10:03:56.946Z,9.74
2022-11-17T10:06:26.806Z,9.76
2022-11-17T10:08:58.226Z,9.78
2022-11-17T10:11:32.345Z,9.79
2022-11-17T10:14:04.016Z,9.82
2022-11-17T10:16:31.370Z,9.84
2022-11-17T10:18:58.135Z,9.86
2022-11-17T10:21:28.358Z,9.87
2022-11-17T10:23:59.221Z,9.86
2022-11-17T10:26:27.983Z,9.94
2022-11-17T10:29:10.987Z,9.96
2022-11-17T10:31:45.442Z,9.97
2022-11-17T10:34:32.973Z,10.01
2022-11-17T10:37:21.837Z,10.05
2022-11-17T10:39:48.497Z,10.04
2022-11-17T10:42:29.766Z,10.12
2022-11-17T10:45:00.112Z,10.15
2022-11-17T10:47:31.622Z,10.18
2022-11-17T10:50:22.756Z,10.22
2022-11-17T10:52:54.555Z,10.23
2022-11-17T10:55:31.557Z,10.25
2022-11-17T10:58:18.924Z,10.26
2022-11-17T11:00:54.028Z,10.25
2022-11-17T11:03:28.080Z,10.28
2022-11-17T11:05:56.818Z,10.26
2022-11-17T11:08:29.430Z,10.28
2022-11-17T11:10:59.422Z,10.26
2022-11-17T11:13:39.292Z,10.27
2022-11-17T11:16:06.057Z,10.26
2022-11-17T11:18:32.613Z,10.26
2022-11-17T11:21:08.309Z,10.26
2022-11-17T11:23:44.001Z,10.25
2022-11-17T11:26:41.162Z,10.25
2022-11-17T11:29:27.920Z,10.26
2022-11-17T11:32:12.782Z,10.26
2022-11-17T11:35:14.536Z,10.25
2022-11-17T11:38:18.449Z,10.27
2022-11-17T11:41:03.437Z,10.24
2022-11-17T11:43:51.533Z,10.27
2022-11-17T11:46:29.752Z,10.24
2022-11-17T11:49:02.666Z,10.21
2022-11-17T11:51:35.136Z,10.26
2022-11-17T11:54:12.982Z,10.28
2022-11-17T11:56:44.190Z,10.26
2022-11-17T11:59:49.209Z,10.29
2022-11-17T12:02:30.469Z,10.28
2022-11-17T12:05:05.491Z,10.29
2022-11-17T12:07:46.900Z,10.29
2022-11-17T12:10:25.397Z,10.29
2022-11-17T12:12:51.943Z,10.33
2022-11-17T12:15:18.393Z,10.33
2022-11-17T12:18:05.071Z,10.38
2022-11-17T12:20:40.901Z,10.37
2022-11-17T12:23:27.486Z,10.33
2022-11-17T12:25:57.390Z,10.38
2022-11-17T12:28:35.474Z,10.38
2022-11-17T12:31:25.252Z,10.41
2022-11-17T12:33:51.665Z,10.39
2022-11-17T12:36:29.851Z,10.38
2022-11-17T12:38:59.429Z,10.36
2022-11-17T12:41:54.517Z,10.38
2022-11-17T12:44:46.103Z,10.37
2022-11-17T12:47:12.434Z,10.35
2022-11-17T12:49:44.176Z,10.35
2022-11-17T12:52:41.829Z,10.35
2022-11-17T12:55:25.376Z,10.37
2022-11-17T12:58:07.674Z,10.36
2022-11-17T13:00:53.135Z,10.36
2022-11-17T13:03:31.367Z,10.37
2022-11-17T13:09:06.420Z,10.38
2022-11-17T13:11:33.078Z,10.40
2022-11-17T13:14:09.586Z,10.41
2022-11-17T13:16:42.209Z,10.43
2022-11-17T13:19:32.336Z,10.47
2022-11-17T13:22:01.485Z,10.50
2022-11-17T13:24:31.186Z,10.51
2022-11-17T13:27:00.053Z,10.56
2022-11-17T13:29:28.233Z,10.59
2022-11-17T13:32:25.127Z,10.60
2022-11-17T13:34:59.892Z,10.59
2022-11-17T13:37:30.201Z,10.64
2022-11-17T13:39:58.456Z,10.68
2022-11-17T13:42:27.953Z,10.71
2022-11-17T13:44:57.193Z,10.77
2022-11-17T13:47:50.034Z,10.78
2022-11-17T13:50:26.707Z,10.78
2022-11-17T13:53:17.362Z,10.80
2022-11-17T13:55:47.400Z,10.82
2022-11-17T13:58:26.282Z,10.84
2022-11-17T14:00:58.666Z,10.88
2022-11-17T14:03:32.368Z,10.87
2022-11-17T14:05:58.841Z,10.92
2022-11-17T14:08:31.607Z,10.95
2022-11-17T14:11:10.297Z,10.97
2022-11-17T14:13:52.367Z,10.97
2022-11-17T14:16:28.168Z,11.00
2022-11-17T14:19:02.184Z,10.99
2022-11-17T14:21:29.971Z,11.00
2022-11-17T14:24:05.953Z,11.03
2022-11-17T14:26:32.583Z,10.97
2022-11-17T14:29:02.201Z,10.99
2022-11-17T14:31:30.474Z,10.96
2022-11-17T14:33:57.334Z,10.99
2022-11-17T14:36:24.240Z,10.98
2022-11-17T14:38:51.038Z,10.99
2022-11-17T14:41:19.046Z,10.97
2022-11-17T14:43:46.165Z,10.96
2022-11-17T14:46:19.852Z,10.95
2022-11-17T14:48:46.442Z,10.94
2022-11-17T14:51:15.028Z,10.92
2022-11-17T14:53:43.085Z,10.89
2022-11-17T14:56:10.608Z,10.94
2022-11-17T14:58:37.088Z,10.93
2022-11-17T15:01:18.437Z,10.92
2022-11-17T15:03:45.553Z,10.94
2022-11-17T15:06:19.292Z,10.93
2022-11-17T15:08:47.127Z,10.92
2022-11-17T15:11:17.416Z,10.92
2022-11-17T15:13:43.952Z,10.90
2022-11-17T15:16:10.770Z,10.89
2022-11-17T15:18:37.548Z,10.88
2022-11-17T15:21:06.729Z,10.87
2022-11-17T15:23:35.804Z,10.84
2022-11-17T15:26:11.809Z,10.83
2022-11-17T15:28:38.279Z,10.80
2022-11-17T15:31:13.000Z,10.82
2022-11-17T15:33:41.194Z,10.80
2022-11-17T15:36:10.041Z,10.78
2022-11-17T15:38:38.357Z,10.79
2022-11-17T15:41:05.631Z,10.76
2022-11-17T15:43:35.422Z,10.78
2022-11-17T15:46:04.865Z,10.76
2022-11-17T15:48:38.779Z,10.76
2022-11-17T15:51:07.698Z,10.74
2022-11-17T15:53:36.401Z,10.75
2022-11-17T15:56:10.171Z,10.72
2022-11-17T15:58:37.040Z,10.71
2022-11-17T16:01:31.292Z,10.72
2022-11-17T16:04:00.807Z,10.67
2022-11-17T16:06:28.675Z,10.64
2022-11-17T16:08:55.437Z,10.66
2022-11-17T16:11:22.138Z,10.64
2022-11-17T16:13:48.620Z,10.63
2022-11-17T16:16:15.528Z,10.57
2022-11-17T16:18:42.081Z,10.63
2022-11-17T16:21:11.842Z,10.62
2022-11-17T16:23:43.328Z,10.62
2022-11-17T16:26:11.116Z,10.65
2022-11-17T16:28:38.635Z,10.62
2022-11-17T16:31:32.172Z,10.64
2022-11-17T16:34:04.373Z,10.61
2022-11-17T16:36:36.623Z,10.62
2022-11-17T16:39:06.844Z,10.62
2022-11-17T16:41:36.210Z,10.64
2022-11-17T16:44:06.284Z,10.66
2022-11-17T16:46:32.885Z,10.66
2022-11-17T16:49:05.283Z,10.64
2022-11-17T16:51:32.601Z,10.63
2022-11-17T16:54:04.894Z,10.63
2022-11-17T16:56:32.521Z,10.62
2022-11-17T16:58:59.224Z,10.61
2022-11-17T17:01:30.108Z,10.56
2022-11-17T17:03:58.177Z,10.55
2022-11-17T17:06:25.220Z,10.52
2022-11-17T17:09:00.231Z,10.51
2022-11-17T17:11:29.056Z,10.47
2022-11-17T17:13:56.589Z,10.45
2022-11-17T17:16:23.466Z,10.41
2022-11-17T17:18:59.567Z,10.38
2022-11-17T17:21:26.881Z,10.37
2022-11-17T17:23:53.871Z,10.32
2022-11-17T17:26:22.363Z,10.28
2022-11-17T17:28:51.115Z,10.30
2022-11-17T17:31:21.608Z,10.28
2022-11-17T17:33:50.217Z,10.29
2022-11-17T17:36:19.020Z,10.26
2022-11-17T17:38:50.150Z,10.21
2022-11-17T17:41:22.258Z,10.24
2022-11-17T17:43:55.056Z,10.19
2022-11-17T17:46:21.606Z,10.20
2022-11-17T17:48:48.091Z,10.20
2022-11-17T17:51:20.373Z,10.14
2022-11-17T17:53:50.001Z,10.15
2022-11-17T17:56:19.080Z,10.11
2022-11-17T17:58:47.949Z,10.08
2022-11-17T18:01:20.137Z,10.03
2022-11-17T18:03:48.278Z,10.05
2022-11-17T18:06:17.402Z,10.02
2022-11-17T18:08:44.933Z,9.97
2022-11-17T18:11:14.614Z,9.97
2022-11-17T18:13:42.994Z,9.97
2022-11-17T18:16:11.813Z,9.98
2022-11-17T18:18:38.838Z,9.96
2022-11-17T18:21:07.832Z,9.97
2022-11-17T18:23:35.088Z,9.93
2022-11-17T18:26:12.179Z,9.96
2022-11-17T18:31:07.508Z,9.90
2022-11-17T18:33:34.558Z,9.84
2022-11-17T18:36:08.952Z,9.84
2022-11-17T18:38:36.934Z,9.82
2022-11-17T18:41:09.149Z,9.80
2022-11-17T18:43:36.644Z,9.81
2022-11-17T18:46:18.254Z,9.81
2022-11-17T18:48:46.321Z,9.80
2022-11-17T18:51:19.853Z,9.78
2022-11-17T18:53:51.944Z,9.76
2022-11-17T18:56:21.563Z,9.77
2022-11-17T18:58:48.245Z,9.73
2022-11-17T19:01:18.796Z,9.72
2022-11-17T19:03:47.496Z,9.72
2022-11-17T19:06:14.863Z,9.72
2022-11-17T19:08:41.783Z,9.72
2022-11-17T19:11:10.420Z,9.67
2022-11-17T19:13:39.071Z,9.65
2022-11-17T19:16:16.216Z,9.66
2022-11-17T19:18:43.646Z,9.60
2022-11-17T19:21:15.214Z,9.61
2022-11-17T19:23:48.014Z,9.65
2022-11-17T19:26:43.590Z,9.67
2022-11-17T19:29:16.718Z,9.65
2022-11-17T19:31:43.915Z,9.61
2022-11-17T19:34:10.585Z,9.62
2022-11-17T19:36:37.446Z,9.54
2022-11-17T19:39:04.062Z,9.58
2022-11-17T19:41:35.989Z,9.60
2022-11-17T19:44:05.276Z,9.57
2022-11-17T19:46:33.719Z,9.59
2022-11-17T19:49:00.247Z,9.55
2022-11-17T19:51:29.357Z,9.52
2022-11-17T19:53:57.671Z,9.55
2022-11-17T19:56:25.532Z,9.54
2022-11-17T19:58:53.699Z,9.52
2022-11-17T20:01:23.964Z,9.52
2022-11-17T20:03:51.401Z,9.52
2022-11-17T20:06:20.293Z,9.50
2022-11-17T20:08:48.271Z,9.48
2022-11-17T20:11:16.698Z,9.46
2022-11-17T20:13:44.323Z,9.47
2022-11-17T20:16:13.991Z,9.48
2022-11-17T20:18:41.654Z,9.43
2022-11-17T20:21:09.826Z,9.40
2022-11-17T20:23:38.125Z,9.42
2022-11-17T20:26:05.288Z,9.42
2022-11-17T20:28:35.885Z,9.40
2022-11-17T20:31:10.006Z,9.32
2022-11-17T20:33:41.665Z,9.36
2022-11-17T20:36:12.394Z,9.31
2022-11-17T20:38:38.951Z,9.32
2022-11-17T20:41:06.628Z,9.31
2022-11-17T20:43:33.982Z,9.32
2022-11-17T20:46:01.545Z,9.29
2022-11-17T20:48:33.852Z,9.29
2022-11-17T20:51:05.991Z,9.24
2022-11-17T20:53:33.177Z,9.29
2022-11-17T20:56:01.504Z,9.25
2022-11-17T20:58:28.916Z,9.24
2022-11-17T21:00:55.971Z,9.19
2022-11-17T21:03:23.460Z,9.23
2022-11-17T21:06:01.993Z,9.24
2022-11-17T21:08:30.745Z,9.21
2022-11-17T21:10:58.877Z,9.17
2022-11-17T21:13:26.159Z,9.18
2022-11-17T21:16:07.854Z,9.20
2022-11-17T21:18:35.483Z,9.16
2022-11-17T21:21:04.534Z,9.17
2022-11-17T21:23:31.515Z,9.14
2022-11-17T21:25:58.004Z,9.12
2022-11-17T21:28:24.471Z,9.09
2022-11-17T21:30:50.921Z,9.08
2022-11-17T21:33:17.458Z,9.07
2022-11-17T21:35:44.035Z,9.03
2022-11-17T21:38:11.032Z,9.05
2022-11-17T21:40:37.534Z,9.00
2022-11-17T21:43:04.435Z,9.03
2022-11-17T21:45:32.661Z,8.98
2022-11-17T21:47:59.661Z,9.00
2022-11-17T21:50:26.302Z,8.95
2022-11-17T21:52:52.828Z,8.95
2022-11-17T21:55:19.340Z,8.96
2022-11-17T21:57:49.354Z,8.91
2022-11-17T22:00:16.401Z,8.89
2022-11-17T22:02:42.884Z,8.85
2022-11-17T22:05:09.521Z,8.85
2022-11-17T22:07:36.116Z,8.87
2022-11-17T22:10:02.684Z,8.87
2022-11-17T22:12:29.213Z,8.87
2022-11-17T22:14:55.680Z,8.83
2022-11-17T22:17:22.206Z,8.82
2022-11-17T22:19:48.710Z,8.77
2022-11-17T22:22:15.233Z,8.76
2022-11-17T22:24:46.907Z,8.72
2022-11-17T22:27:16.047Z,8.69
2022-11-17T22:29:42.574Z,8.66
2022-11-17T22:32:09.117Z,8.67
2022-11-17T22:34:35.658Z,8.66
2022-11-17T22:37:02.140Z,8.67
2022-11-17T22:39:28.649Z,8.65
2022-11-17T22:41:55.151Z,8.63
2022-11-17T22:44:21.690Z,8.63
2022-11-17T22:46:48.239Z,8.58
2022-11-17T22:49:14.998Z,8.56
2022-11-17T22:52:00.293Z,8.54
2022-11-17T22:54:26.887Z,8.63
2022-11-17T22:56:53.408Z,8.60
2022-11-17T22:59:22.903Z,8.57
2022-11-17T23:01:49.541Z,8.53
2022-11-17T23:04:16.499Z,8.51
2022-11-17T23:06:43.631Z,8.51
2022-11-17T23:09:10.840Z,8.53
2022-11-17T23:11:38.513Z,8.43
2022-11-17T23:14:07.756Z,8.39
2022-11-17T23:16:34.395Z,8.43
2022-11-17T23:19:00.945Z,8.40
2022-11-17T23:21:27.489Z,8.40
2022-11-17T23:23:54.046Z,8.43
2022-11-17T23:26:20.928Z,8.37
2022-11-17T23:28:47.409Z,8.45
2022-11-17T23:31:15.442Z,8.37
2022-11-17T23:33:43.877Z,8.39
2022-11-17T23:36:19.167Z,8.44
2022-11-17T23:38:46.680Z,8.43
2022-11-17T23:41:15.078Z,8.43
2022-11-17T23:43:41.696Z,8.44
2022-11-17T23:46:13.955Z,8.41
2022-11-17T23:48:41.267Z,8.36
2022-11-17T23:51:12.058Z,8.38
2022-11-17T23:53:38.876Z,8.36
2022-11-17T23:56:06.069Z,8.39
2022-11-17T23:58:33.342Z,8.32
